createdAt,value
2022-10-01T00:00:15.937Z,13.25
2022-10-01T00:02:44.457Z,12.73
2022-10-01T00:05:13.025Z,12.92
2022-10-01T00:07:42.412Z,12.35
2022-10-01T00:10:12.398Z,12.53
2022-10-01T00:12:47.115Z,12.61
2022-10-01T00:15:16.908Z,12.21
2022-10-01T00:17:45.525Z,12.19
2022-10-01T00:20:14.608Z,11.85
2022-10-01T00:22:43.547Z,11.88
2022-10-01T00:25:12.065Z,11.87
2022-10-01T00:27:40.828Z,11.60
2022-10-01T00:30:12.001Z,12.16
2022-10-01T00:32:41.183Z,11.71
2022-10-01T00:35:10.575Z,11.87
2022-10-01T00:37:39.312Z,11.43
2022-10-01T00:40:09.305Z,11.60
2022-10-01T00:42:37.817Z,11.46
2022-10-01T00:45:07.246Z,11.40
2022-10-01T00:47:41.025Z,11.38
2022-10-01T00:50:16.420Z,11.41
2022-10-01T00:52:47.991Z,11.33
2022-10-01T00:55:20.835Z,11.20
2022-10-01T00:57:49.452Z,11.15
2022-10-01T01:00:18.273Z,11.51
2022-10-01T01:02:48.109Z,11.28
2022-10-01T01:05:16.659Z,11.03
2022-10-01T01:07:48.040Z,10.92
2022-10-01T01:10:20.266Z,11.23
2022-10-01T01:13:00.039Z,11.47
2022-10-01T01:15:36.168Z,11.24
2022-10-01T01:18:12.053Z,11.44
2022-10-01T01:21:07.020Z,11.15
2022-10-01T01:24:02.957Z,10.81
2022-10-01T01:26:43.162Z,10.89
2022-10-01T01:29:21.034Z,11.27
2022-10-01T01:31:50.783Z,10.80
2022-10-01T01:34:22.998Z,10.90
2022-10-01T01:36:58.604Z,11.78
2022-10-01T01:39:32.159Z,11.36
2022-10-01T01:42:05.705Z,11.52
2022-10-01T01:44:40.748Z,11.19
2022-10-01T01:47:11.928Z,11.16
2022-10-01T01:49:42.128Z,11.40
2022-10-01T01:52:13.693Z,11.49
2022-10-01T01:54:44.365Z,10.95
2022-10-01T01:57:15.174Z,10.84
2022-10-01T01:59:45.234Z,11.14
2022-10-01T02:02:18.070Z,10.91
2022-10-01T02:04:50.410Z,10.83
2022-10-01T02:07:35.358Z,11.03
2022-10-01T02:10:17.717Z,11.05
2022-10-01T02:13:01.549Z,11.03
2022-10-01T02:15:39.304Z,10.92
2022-10-01T02:18:16.557Z,10.71
2022-10-01T02:20:50.405Z,11.03
2022-10-01T02:23:23.376Z,11.72
2022-10-01T02:25:57.126Z,11.28
2022-10-01T02:28:26.715Z,11.08
2022-10-01T02:30:58.483Z,11.73
2022-10-01T02:33:31.149Z,11.40
2022-10-01T02:36:01.853Z,11.20
2022-10-01T02:38:31.894Z,11.21
2022-10-01T02:41:05.088Z,10.85
2022-10-01T02:43:42.965Z,10.83
2022-10-01T02:46:21.411Z,11.00
2022-10-01T02:48:51.286Z,10.98
2022-10-01T02:51:30.095Z,10.91
2022-10-01T02:54:05.465Z,11.02
2022-10-01T02:56:56.037Z,10.53
2022-10-01T02:59:24.782Z,10.85
2022-10-01T03:01:54.687Z,10.53
2022-10-01T03:04:23.260Z,11.12
2022-10-01T03:06:51.703Z,10.58
2022-10-01T03:09:20.207Z,10.71
2022-10-01T03:11:48.675Z,10.70
2022-10-01T03:14:17.126Z,10.88
2022-10-01T03:16:45.588Z,10.75
2022-10-01T03:19:15.403Z,10.57
2022-10-01T03:21:43.897Z,10.46
2022-10-01T03:24:12.461Z,10.68
2022-10-01T03:26:40.978Z,11.11
2022-10-01T03:29:09.701Z,10.69
2022-10-01T03:31:38.701Z,10.69
2022-10-01T03:34:07.576Z,10.79
2022-10-01T03:36:37.926Z,11.04
2022-10-01T03:39:06.464Z,10.59
2022-10-01T03:41:35.283Z,10.94
2022-10-01T03:44:03.978Z,10.19
2022-10-01T03:46:32.650Z,10.45
2022-10-01T03:49:01.301Z,10.19
2022-10-01T03:51:30.645Z,10.18
2022-10-01T03:54:00.534Z,10.19
2022-10-01T03:56:29.134Z,10.38
2022-10-01T03:58:57.647Z,10.47
2022-10-01T04:01:27.113Z,10.50
2022-10-01T04:03:55.865Z,10.48
2022-10-01T04:06:24.361Z,10.31
2022-10-01T04:08:52.813Z,10.80
2022-10-01T04:11:22.755Z,10.50
2022-10-01T04:13:51.299Z,10.33
2022-10-01T04:16:19.839Z,10.39
2022-10-01T04:18:48.386Z,10.35
2022-10-01T04:21:17.092Z,11.31
2022-10-01T04:23:45.553Z,10.77
2022-10-01T04:26:14.063Z,11.17
2022-10-01T04:28:45.182Z,11.21
2022-10-01T04:31:25.806Z,11.12
2022-10-01T04:33:55.204Z,11.35
2022-10-01T04:36:24.628Z,10.91
2022-10-01T04:38:57.985Z,10.94
2022-10-01T04:41:30.502Z,11.14
2022-10-01T04:44:01.252Z,11.37
2022-10-01T04:46:30.913Z,11.40
2022-10-01T04:48:59.882Z,10.99
2022-10-01T04:51:28.364Z,11.18
2022-10-01T04:53:56.816Z,10.98
2022-10-01T04:56:25.324Z,11.54
2022-10-01T04:58:53.804Z,11.38
2022-10-01T05:01:23.713Z,10.82
2022-10-01T05:03:52.327Z,11.05
2022-10-01T05:06:20.820Z,11.39
2022-10-01T05:08:49.746Z,11.49
2022-10-01T05:11:18.552Z,11.64
2022-10-01T05:13:47.154Z,11.16
2022-10-01T05:16:15.662Z,11.21
2022-10-01T05:18:45.620Z,11.24
2022-10-01T05:21:15.660Z,11.29
2022-10-01T05:23:44.474Z,11.72
2022-10-01T05:26:12.954Z,11.60
2022-10-01T05:28:44.540Z,11.52
2022-10-01T05:31:14.094Z,11.69
2022-10-01T05:33:43.973Z,11.91
2022-10-01T05:36:12.432Z,11.63
2022-10-01T05:38:42.396Z,11.55
2022-10-01T05:41:11.073Z,11.69
2022-10-01T05:43:39.530Z,11.61
2022-10-01T05:46:08.042Z,12.34
2022-10-01T05:48:37.038Z,11.77
2022-10-01T05:51:08.390Z,12.06
2022-10-01T05:53:38.433Z,12.13
2022-10-01T05:56:08.190Z,12.42
2022-10-01T05:58:37.215Z,12.18
2022-10-01T06:01:05.883Z,12.37
2022-10-01T06:03:34.672Z,12.41
2022-10-01T06:06:05.382Z,12.85
2022-10-01T06:08:35.475Z,12.70
2022-10-01T06:11:04.696Z,12.63
2022-10-01T06:13:33.344Z,12.38
2022-10-01T06:16:02.038Z,11.98
2022-10-01T06:18:30.530Z,11.50
2022-10-01T06:21:00.709Z,11.87
2022-10-01T06:23:30.022Z,12.02
2022-10-01T06:26:02.108Z,12.11
2022-10-01T06:28:30.704Z,11.95
2022-10-01T06:31:01.909Z,12.14
2022-10-01T06:33:30.735Z,11.87
2022-10-01T06:35:59.273Z,12.10
2022-10-01T06:38:27.732Z,12.41
2022-10-01T06:40:57.245Z,12.41
2022-10-01T06:43:28.594Z,12.09
2022-10-01T06:45:58.120Z,12.19
2022-10-01T06:48:26.632Z,12.37
2022-10-01T06:50:57.681Z,12.49
2022-10-01T06:53:27.876Z,12.51
2022-10-01T06:55:57.058Z,12.44
2022-10-01T06:58:27.349Z,12.58
2022-10-01T07:01:01.531Z,12.72
2022-10-01T07:03:31.118Z,12.64
2022-10-01T07:06:03.916Z,12.84
2022-10-01T07:08:33.283Z,12.77
2022-10-01T07:11:03.617Z,12.41
2022-10-01T07:13:33.478Z,13.02
2022-10-01T07:16:04.906Z,13.59
2022-10-01T07:18:33.480Z,12.93
2022-10-01T07:21:02.282Z,12.76
2022-10-01T07:23:30.779Z,12.71
2022-10-01T07:25:59.287Z,13.11
2022-10-01T07:28:28.246Z,12.93
2022-10-01T07:31:03.716Z,12.61
2022-10-01T07:33:32.212Z,12.73
2022-10-01T07:36:02.246Z,12.88
2022-10-01T07:38:30.995Z,12.80
2022-10-01T07:40:59.531Z,12.47
2022-10-01T07:43:28.012Z,13.22
2022-10-01T07:45:58.181Z,13.01
2022-10-01T07:48:28.607Z,13.03
2022-10-01T07:50:57.922Z,13.39
2022-10-01T07:53:27.574Z,13.41
2022-10-01T07:55:56.129Z,13.10
2022-10-01T07:58:24.605Z,13.47
2022-10-01T08:00:56.206Z,13.42
2022-10-01T08:03:24.991Z,13.27
2022-10-01T08:05:54.924Z,13.19
2022-10-01T08:08:23.817Z,13.65
2022-10-01T08:10:52.351Z,14.05
2022-10-01T08:13:24.772Z,14.01
2022-10-01T08:15:54.913Z,13.99
2022-10-01T08:18:24.230Z,14.09
2022-10-01T08:20:54.995Z,14.05
2022-10-01T08:23:23.518Z,14.22
2022-10-01T08:25:52.004Z,14.23
2022-10-01T08:28:20.512Z,14.02
2022-10-01T08:30:49.011Z,13.96
2022-10-01T08:33:17.627Z,13.86
2022-10-01T08:35:46.163Z,14.26
2022-10-01T08:38:16.610Z,14.18
2022-10-01T08:40:48.323Z,14.31
2022-10-01T08:43:32.171Z,14.35
2022-10-01T08:46:05.125Z,14.11
2022-10-01T08:48:46.258Z,14.23
2022-10-01T08:51:24.670Z,14.20
2022-10-01T08:53:58.080Z,14.10
2022-10-01T08:56:31.970Z,13.86
2022-10-01T08:59:03.909Z,14.10
2022-10-01T09:01:33.337Z,13.88
2022-10-01T09:04:02.359Z,14.06
2022-10-01T09:06:31.107Z,14.17
2022-10-01T09:09:23.743Z,14.23
2022-10-01T09:12:06.010Z,13.89
2022-10-01T09:14:53.967Z,14.25
2022-10-01T09:17:34.469Z,14.21
2022-10-01T09:20:11.875Z,14.36
2022-10-01T09:22:43.095Z,14.22
2022-10-01T09:25:22.379Z,14.30
2022-10-01T09:27:51.758Z,14.04
2022-10-01T09:30:23.382Z,14.08
2022-10-01T09:32:56.032Z,14.34
2022-10-01T09:35:35.101Z,13.88
2022-10-01T09:38:10.816Z,13.85
2022-10-01T09:40:47.651Z,13.59
2022-10-01T09:43:21.937Z,13.80
2022-10-01T09:45:51.378Z,13.85
2022-10-01T09:48:29.423Z,13.71
2022-10-01T09:51:02.817Z,13.66
2022-10-01T09:53:37.822Z,13.70
2022-10-01T09:56:15.543Z,13.66
2022-10-01T09:58:49.865Z,13.91
2022-10-01T10:01:24.050Z,14.04
2022-10-01T10:03:58.121Z,14.16
2022-10-01T10:06:30.355Z,14.17
2022-10-01T10:09:01.231Z,14.19
2022-10-01T10:11:33.347Z,14.21
2022-10-01T10:14:04.516Z,15.20
2022-10-01T10:16:37.119Z,14.58
2022-10-01T10:19:10.166Z,14.84
2022-10-01T10:21:38.951Z,15.07
2022-10-01T10:24:23.051Z,15.33
2022-10-01T10:26:56.423Z,15.67
2022-10-01T10:29:30.509Z,15.63
2022-10-01T10:32:00.444Z,15.54
2022-10-01T10:34:34.788Z,15.26
2022-10-01T10:37:07.665Z,15.31
2022-10-01T10:39:38.971Z,14.96
2022-10-01T10:42:09.356Z,14.87
2022-10-01T10:44:40.101Z,14.99
2022-10-01T10:47:12.595Z,14.83
2022-10-01T10:49:46.856Z,14.81
2022-10-01T10:52:23.669Z,14.85
2022-10-01T10:54:53.225Z,15.15
2022-10-01T10:57:27.796Z,15.59
2022-10-01T10:59:58.253Z,15.60
2022-10-01T11:02:30.141Z,16.22
2022-10-01T11:05:03.608Z,16.80
2022-10-01T11:07:33.345Z,17.20
2022-10-01T11:10:24.963Z,17.11
2022-10-01T11:13:24.322Z,17.38
2022-10-01T11:16:05.932Z,17.23
2022-10-01T11:18:50.140Z,17.72
2022-10-01T11:21:39.493Z,17.62
2022-10-01T11:24:36.279Z,17.36
2022-10-01T11:27:12.429Z,17.57
2022-10-01T11:29:55.780Z,17.77
2022-10-01T11:32:29.960Z,17.22
2022-10-01T11:35:28.212Z,17.14
2022-10-01T11:38:17.890Z,17.03
2022-10-01T11:40:51.359Z,17.27
2022-10-01T11:43:25.452Z,17.62
2022-10-01T11:45:59.964Z,17.37
2022-10-01T11:48:31.345Z,16.93
2022-10-01T11:51:07.708Z,17.08
2022-10-01T11:53:44.484Z,16.73
2022-10-01T11:56:38.148Z,16.83
2022-10-01T11:59:11.750Z,17.24
2022-10-01T12:01:47.194Z,16.98
2022-10-01T12:04:32.760Z,16.81
2022-10-01T12:07:06.464Z,17.05
2022-10-01T12:09:48.405Z,17.18
2022-10-01T12:12:22.463Z,17.23
2022-10-01T12:14:55.297Z,17.48
2022-10-01T12:17:33.531Z,17.12
2022-10-01T12:20:04.799Z,16.99
2022-10-01T12:22:36.800Z,16.80
2022-10-01T12:25:05.919Z,16.79
2022-10-01T12:27:47.853Z,17.11
2022-10-01T12:30:20.487Z,17.02
2022-10-01T12:33:04.939Z,17.19
2022-10-01T12:35:49.292Z,17.17
2022-10-01T12:38:38.361Z,17.29
2022-10-01T12:41:24.748Z,17.36
2022-10-01T12:44:25.252Z,17.42
2022-10-01T12:47:07.550Z,17.34
2022-10-01T12:49:45.309Z,17.39
2022-10-01T12:52:25.539Z,17.08
2022-10-01T12:55:19.762Z,16.82
2022-10-01T12:58:01.080Z,17.09
2022-10-01T13:00:34.832Z,16.84
2022-10-01T13:03:43.862Z,16.19
2022-10-01T13:06:35.753Z,16.43
2022-10-01T13:09:12.524Z,16.52
2022-10-01T13:12:07.241Z,16.81
2022-10-01T13:14:36.894Z,16.99
2022-10-01T13:17:14.250Z,17.14
2022-10-01T13:19:55.950Z,17.22
2022-10-01T13:22:39.455Z,17.41
2022-10-01T13:25:25.476Z,17.08
2022-10-01T13:28:03.731Z,17.14
2022-10-01T13:30:43.303Z,16.75
2022-10-01T13:33:26.206Z,16.77
2022-10-01T13:35:58.884Z,16.21
2022-10-01T13:38:42.709Z,16.12
2022-10-01T13:41:22.281Z,16.21
2022-10-01T13:43:56.830Z,16.41
2022-10-01T13:46:29.480Z,16.52
2022-10-01T13:49:01.414Z,16.50
2022-10-01T13:51:37.022Z,16.56
2022-10-01T13:54:18.720Z,17.05
2022-10-01T13:56:47.170Z,16.92
2022-10-01T13:59:33.617Z,16.95
2022-10-01T14:02:03.048Z,17.11
2022-10-01T14:04:39.893Z,16.95
2022-10-01T14:07:18.917Z,16.98
2022-10-01T14:09:52.792Z,16.88
2022-10-01T14:12:43.550Z,16.95
2022-10-01T14:15:37.055Z,17.13
2022-10-01T14:18:13.998Z,16.97
2022-10-01T14:21:00.410Z,16.79
2022-10-01T14:23:37.443Z,16.90
2022-10-01T14:26:17.210Z,16.72
2022-10-01T14:29:00.077Z,16.76
2022-10-01T14:31:50.098Z,16.65
2022-10-01T14:34:50.929Z,16.40
2022-10-01T14:37:21.133Z,16.44
2022-10-01T14:40:02.994Z,16.42
2022-10-01T14:42:32.567Z,16.89
2022-10-01T14:45:00.761Z,16.92
2022-10-01T14:47:35.556Z,17.29
2022-10-01T14:50:11.870Z,17.29
2022-10-01T14:52:51.527Z,17.32
2022-10-01T14:55:24.479Z,17.19
2022-10-01T14:57:56.693Z,17.32
2022-10-01T15:00:27.812Z,17.33
2022-10-01T15:03:12.646Z,17.59
2022-10-01T15:05:40.844Z,17.44
2022-10-01T15:08:14.542Z,17.41
2022-10-01T15:10:48.563Z,17.30
2022-10-01T15:13:24.921Z,17.35
2022-10-01T15:15:55.062Z,17.08
2022-10-01T15:18:24.853Z,17.08
2022-10-01T15:20:59.897Z,17.27
2022-10-01T15:23:30.216Z,17.12
2022-10-01T15:26:01.557Z,17.20
2022-10-01T15:28:34.013Z,17.32
2022-10-01T15:31:04.740Z,17.27
2022-10-01T15:33:36.090Z,17.55
2022-10-01T15:36:08.597Z,17.50
2022-10-01T15:38:37.774Z,17.23
2022-10-01T15:41:30.548Z,17.29
2022-10-01T15:43:59.819Z,17.08
2022-10-01T15:46:32.839Z,17.19
2022-10-01T15:49:20.196Z,17.26
2022-10-01T15:52:11.834Z,17.18
2022-10-01T15:54:42.269Z,16.70
2022-10-01T15:57:16.789Z,16.87
2022-10-01T15:59:47.165Z,16.79
2022-10-01T16:02:22.087Z,16.89
2022-10-01T16:04:52.850Z,16.81
2022-10-01T16:07:26.793Z,16.70
2022-10-01T16:09:59.504Z,16.48
2022-10-01T16:12:29.766Z,16.52
2022-10-01T16:15:01.191Z,16.56
2022-10-01T16:17:35.628Z,16.59
2022-10-01T16:20:36.556Z,16.42
2022-10-01T16:23:42.892Z,16.88
2022-10-01T16:26:39.730Z,16.99
2022-10-01T16:29:26.732Z,16.77
2022-10-01T16:31:57.623Z,16.95
2022-10-01T16:34:27.820Z,16.74
2022-10-01T16:36:55.996Z,16.45
2022-10-01T16:39:24.561Z,16.26
2022-10-01T16:42:19.236Z,16.58
2022-10-01T16:44:43.279Z,16.65
2022-10-01T16:47:13.501Z,16.48
2022-10-01T16:49:42.310Z,16.13
2022-10-01T16:52:16.856Z,16.20
2022-10-01T16:54:47.476Z,16.17
2022-10-01T16:57:16.533Z,16.31
2022-10-01T16:59:44.970Z,16.45
2022-10-01T17:02:26.302Z,16.17
2022-10-01T17:04:54.508Z,16.10
2022-10-01T17:07:22.694Z,16.37
2022-10-01T17:09:50.848Z,15.98
2022-10-01T17:12:19.117Z,15.84
2022-10-01T17:14:47.302Z,15.87
2022-10-01T17:17:16.805Z,15.76
2022-10-01T17:19:45.187Z,15.78
2022-10-01T17:22:13.413Z,15.69
2022-10-01T17:24:41.564Z,15.86
2022-10-01T17:27:09.763Z,15.72
2022-10-01T17:29:39.152Z,15.57
2022-10-01T17:32:07.439Z,15.77
2022-10-01T17:34:37.329Z,15.21
2022-10-01T17:37:05.562Z,15.61
2022-10-01T17:39:34.720Z,15.33
2022-10-01T17:42:02.898Z,15.07
2022-10-01T17:44:31.091Z,15.46
2022-10-01T17:46:59.316Z,15.55
2022-10-01T17:49:27.457Z,15.49
2022-10-01T17:51:57.065Z,15.76
2022-10-01T17:54:25.577Z,15.41
2022-10-01T17:56:54.908Z,15.49
2022-10-01T17:59:23.171Z,15.16
2022-10-01T18:01:54.355Z,15.61
2022-10-01T18:04:22.861Z,15.81
2022-10-01T18:06:52.529Z,15.56
2022-10-01T18:09:22.520Z,15.31
2022-10-01T18:11:50.968Z,15.27
2022-10-01T18:14:19.517Z,14.83
2022-10-01T18:16:47.725Z,15.13
2022-10-01T18:22:13.408Z,15.15
2022-10-01T18:24:45.717Z,15.36
2022-10-01T18:27:14.629Z,15.07
2022-10-01T18:29:42.791Z,15.04
2022-10-01T18:32:19.231Z,15.22
2022-10-01T18:34:54.388Z,15.03
2022-10-01T18:37:39.044Z,14.51
2022-10-01T18:40:16.113Z,15.11
2022-10-01T18:42:50.633Z,15.22
2022-10-01T18:45:29.924Z,15.00
2022-10-01T18:48:19.056Z,15.19
2022-10-01T18:50:54.745Z,15.68
2022-10-01T18:53:44.003Z,15.28
2022-10-01T18:56:25.638Z,15.07
2022-10-01T18:59:35.642Z,15.00
2022-10-01T19:02:53.989Z,15.07
2022-10-01T19:06:12.118Z,14.86
2022-10-01T19:09:03.687Z,15.05
2022-10-01T19:11:46.094Z,14.82
2022-10-01T19:14:40.634Z,14.92
2022-10-01T19:17:26.979Z,14.90
2022-10-01T19:20:16.318Z,14.85
2022-10-01T19:23:05.811Z,14.18
2022-10-01T19:25:44.345Z,14.64
2022-10-01T19:28:31.303Z,14.17
2022-10-01T19:31:12.618Z,13.99
2022-10-01T19:33:48.066Z,14.48
2022-10-01T19:36:25.981Z,14.26
2022-10-01T19:38:59.081Z,14.20
2022-10-01T19:41:38.315Z,13.91
2022-10-01T19:44:16.485Z,14.38
2022-10-01T19:46:47.405Z,14.97
2022-10-01T19:49:21.870Z,14.85
2022-10-01T19:51:58.239Z,14.64
2022-10-01T19:54:34.216Z,14.20
2022-10-01T19:57:07.573Z,14.08
2022-10-01T19:59:37.097Z,14.38
2022-10-01T20:02:32.363Z,14.65
2022-10-01T20:05:06.391Z,13.61
2022-10-01T20:07:46.906Z,13.42
2022-10-01T20:10:29.463Z,14.47
2022-10-01T20:13:07.880Z,15.19
2022-10-01T20:15:47.609Z,14.99
2022-10-01T20:18:28.257Z,14.45
2022-10-01T20:21:24.268Z,14.70
2022-10-01T20:23:58.548Z,13.87
2022-10-01T20:26:38.440Z,14.17
2022-10-01T20:29:21.829Z,14.03
2022-10-01T20:32:04.681Z,13.86
2022-10-01T20:34:41.841Z,13.41
2022-10-01T20:37:34.851Z,14.63
2022-10-01T20:40:11.342Z,14.25
2022-10-01T20:42:46.737Z,14.90
2022-10-01T20:45:21.171Z,15.11
2022-10-01T20:47:55.270Z,15.12
2022-10-01T20:50:32.393Z,15.01
2022-10-01T20:53:22.100Z,14.34
2022-10-01T20:55:57.174Z,14.68
2022-10-01T20:58:30.265Z,14.90
2022-10-01T21:01:05.353Z,14.49
2022-10-01T21:03:40.502Z,14.40
2022-10-01T21:06:16.613Z,13.83
2022-10-01T21:08:52.282Z,13.55
2022-10-01T21:11:31.367Z,13.72
2022-10-01T21:14:11.677Z,13.28
2022-10-01T21:17:02.228Z,13.50
2022-10-01T21:19:49.951Z,14.32
2022-10-01T21:22:36.244Z,14.88
2022-10-01T21:25:16.381Z,14.68
2022-10-01T21:28:09.373Z,14.04
2022-10-01T21:30:53.656Z,13.45
2022-10-01T21:33:27.133Z,12.89
2022-10-01T21:36:02.997Z,12.96
2022-10-01T21:38:37.513Z,12.49
2022-10-01T21:41:41.886Z,13.09
2022-10-01T21:44:42.659Z,13.37
2022-10-01T21:47:19.602Z,12.81
2022-10-01T21:49:58.277Z,13.65
2022-10-01T21:52:40.658Z,13.51
2022-10-01T21:55:41.403Z,13.62
2022-10-01T21:58:24.769Z,12.33
2022-10-01T22:01:01.421Z,12.63
2022-10-01T22:03:36.325Z,12.96
2022-10-01T22:06:12.989Z,13.20
2022-10-01T22:09:00.717Z,12.86
2022-10-01T22:11:34.609Z,13.08
2022-10-01T22:14:13.689Z,13.54
2022-10-01T22:16:48.092Z,13.47
2022-10-01T22:19:22.429Z,13.95
2022-10-01T22:21:56.443Z,14.10
2022-10-01T22:24:33.024Z,13.70
2022-10-01T22:27:07.996Z,14.12
2022-10-01T22:29:41.579Z,14.69
2022-10-01T22:32:13.077Z,15.12
2022-10-01T22:34:47.390Z,15.37
2022-10-01T22:37:21.906Z,15.68
2022-10-01T22:39:58.239Z,15.00
2022-10-01T22:42:32.403Z,14.05
2022-10-01T22:45:07.660Z,14.02
2022-10-01T22:47:52.650Z,14.50
2022-10-01T22:50:37.714Z,13.40
2022-10-01T22:53:30.125Z,13.63
2022-10-01T22:56:00.140Z,13.26
2022-10-01T22:58:51.085Z,13.76
2022-10-01T23:01:28.960Z,13.60
2022-10-01T23:04:15.116Z,13.32
2022-10-01T23:06:52.886Z,13.66
2022-10-01T23:09:27.920Z,13.80
2022-10-01T23:12:09.969Z,14.36
2022-10-01T23:14:53.493Z,13.58
2022-10-01T23:17:29.209Z,13.61
2022-10-01T23:20:09.631Z,14.00
2022-10-01T23:22:53.507Z,14.14
2022-10-01T23:25:35.609Z,13.66
2022-10-01T23:28:15.890Z,13.93
2022-10-01T23:30:56.646Z,13.73
2022-10-01T23:33:42.325Z,13.68
2022-10-01T23:36:21.599Z,13.24
2022-10-01T23:39:20.710Z,13.24
2022-10-01T23:41:55.288Z,12.91
2022-10-01T23:44:38.111Z,13.09
2022-10-01T23:47:10.839Z,13.45
2022-10-01T23:49:44.168Z,13.23
2022-10-01T23:52:17.867Z,13.19
2022-10-01T23:54:49.695Z,12.62
2022-10-01T23:57:22.557Z,12.39
